Airport Name : Bratsk

Other Name : Bratsk

ICAO : UIBB

IATA : BTK

FAA :

Latitude : 56.370556

Longitude : 101.698331

Country : Russia

Local Date and Time : 7/21/2018 5:40:00 PM

 

TAF (Terminal Aerodrome Forecast)

TAF UIBB 210800Z 2109/2209 33005MPS 5000 FU SCT016CB TEMPO 2109/2203 1900 FU BECMG 2113/2114 03005MPS

 

METAR (METeorological Aerodrome Report)

UIBB 210930Z 36006MPS 320V040 7000 NSC 19/06 Q1008 R30/60D NOSIG RMK QFE713/0951

UIBB 210900Z 34005MPS 300V020 9000 NSC 20/07 Q1007 R30/CLRD60 NOSIG RMK QFE713/0951

UIBB 210830Z 32006MPS 290V360 9000 NSC 20/07 Q1007 R30/60D NOSIG RMK QFE713/0950

UIBB 210800Z 31006MPS 280V350 9000 NSC 20/07 Q1007 R30/60D NOSIG RMK QFE712/0950

UIBB 210730Z 32006MPS 280V360 8000 NSC 20/08 Q1007 R30/CLRD60 NOSIG RMK QFE712/0950

UIBB 210700Z 30006MPS 260V340 6000 NSC 20/08 Q1006 R30/CLRD60 NOSIG RMK QFE712/0950

UIBB 210630Z 32006MPS 270V360 6000 NSC 20/09 Q1006 R30/60D NOSIG RMK QFE712/0950

UIBB 210600Z 31005MPS 280V360 5000 FU NSC 19/10 Q1006 R30/60D NOSIG RMK QFE712/0949